sensor_id;sensor_type;location;lat;lon;timestamp;temperature;humidity
46366;DHT22;32073;49.166;8.076;2022-09-09T00:00:26;20.20;59.20
46366;DHT22;32073;49.166;8.076;2022-09-09T00:04:35;20.20;59.30
46366;DHT22;32073;49.166;8.076;2022-09-09T00:08:49;20.40;59.70
46366;DHT22;32073;49.166;8.076;2022-09-09T00:17:04;20.30;59.60
46366;DHT22;32073;49.166;8.076;2022-09-09T00:21:14;20.30;59.70
46366;DHT22;32073;49.166;8.076;2022-09-09T00:25:29;20.30;59.80
46366;DHT22;32073;49.166;8.076;2022-09-09T00:29:41;20.30;59.90
46366;DHT22;32073;49.166;8.076;2022-09-09T00:33:45;20.40;59.90
46366;DHT22;32073;49.166;8.076;2022-09-09T00:37:48;20.40;59.80
46366;DHT22;32073;49.166;8.076;2022-09-09T00:46:42;20.40;60.10
46366;DHT22;32073;49.166;8.076;2022-09-09T00:50:57;20.40;60.30
46366;DHT22;32073;49.166;8.076;2022-09-09T00:55:16;20.40;60.20
46366;DHT22;32073;49.166;8.076;2022-09-09T00:59:32;20.40;60.10
46366;DHT22;32073;49.166;8.076;2022-09-09T01:03:49;20.30;60.20
46366;DHT22;32073;49.166;8.076;2022-09-09T01:07:54;20.40;60.30
46366;DHT22;32073;49.166;8.076;2022-09-09T01:12:16;20.30;60.00
46366;DHT22;32073;49.166;8.076;2022-09-09T01:16:23;20.40;60.70
46366;DHT22;32073;49.166;8.076;2022-09-09T01:29:56;20.30;60.60
46366;DHT22;32073;49.166;8.076;2022-09-09T01:33:56;20.30;60.30
46366;DHT22;32073;49.166;8.076;2022-09-09T01:37:57;20.30;60.20
46366;DHT22;32073;49.166;8.076;2022-09-09T01:41:58;20.30;60.10
46366;DHT22;32073;49.166;8.076;2022-09-09T01:46:01;20.30;60.30
46366;DHT22;32073;49.166;8.076;2022-09-09T01:50:03;20.30;60.30
46366;DHT22;32073;49.166;8.076;2022-09-09T01:54:04;20.20;60.30
46366;DHT22;32073;49.166;8.076;2022-09-09T02:06:54;20.10;60.80
46366;DHT22;32073;49.166;8.076;2022-09-09T02:11:11;20.10;60.60
46366;DHT22;32073;49.166;8.076;2022-09-09T02:16:07;20.10;60.80
46366;DHT22;32073;49.166;8.076;2022-09-09T02:20:12;20.10;61.00
46366;DHT22;32073;49.166;8.076;2022-09-09T02:24:15;20.00;60.70
46366;DHT22;32073;49.166;8.076;2022-09-09T02:28:16;20.00;60.70
46366;DHT22;32073;49.166;8.076;2022-09-09T02:32:22;20.00;60.80
46366;DHT22;32073;49.166;8.076;2022-09-09T02:36:26;19.90;60.80
46366;DHT22;32073;49.166;8.076;2022-09-09T02:40:29;20.00;60.80
46366;DHT22;32073;49.166;8.076;2022-09-09T02:44:30;19.90;60.70
46366;DHT22;32073;49.166;8.076;2022-09-09T02:57:24;19.70;61.00
46366;DHT22;32073;49.166;8.076;2022-09-09T03:01:28;19.70;61.50
46366;DHT22;32073;49.166;8.076;2022-09-09T03:05:28;19.70;61.20
46366;DHT22;32073;49.166;8.076;2022-09-09T03:09:30;19.70;61.40
46366;DHT22;32073;49.166;8.076;2022-09-09T03:13:30;19.50;61.40
46366;DHT22;32073;49.166;8.076;2022-09-09T03:17:31;19.70;61.60
46366;DHT22;32073;49.166;8.076;2022-09-09T03:21:32;19.70;61.70
46366;DHT22;32073;49.166;8.076;2022-09-09T03:25:33;19.70;61.60
46366;DHT22;32073;49.166;8.076;2022-09-09T03:29:34;19.70;61.60
46366;DHT22;32073;49.166;8.076;2022-09-09T03:33:34;19.70;61.50
46366;DHT22;32073;49.166;8.076;2022-09-09T03:37:37;19.70;61.60
46366;DHT22;32073;49.166;8.076;2022-09-09T03:41:39;19.80;61.60
46366;DHT22;32073;49.166;8.076;2022-09-09T03:45:39;19.70;61.70
46366;DHT22;32073;49.166;8.076;2022-09-09T03:49:40;19.70;61.80
46366;DHT22;32073;49.166;8.076;2022-09-09T03:53:41;19.70;61.70
46366;DHT22;32073;49.166;8.076;2022-09-09T03:57:43;19.70;61.80
46366;DHT22;32073;49.166;8.076;2022-09-09T04:01:44;19.60;61.70
46366;DHT22;32073;49.166;8.076;2022-09-09T04:05:49;19.60;61.70
46366;DHT22;32073;49.166;8.076;2022-09-09T04:09:49;19.60;61.90
46366;DHT22;32073;49.166;8.076;2022-09-09T04:13:50;19.60;61.80
46366;DHT22;32073;49.166;8.076;2022-09-09T04:17:51;19.60;61.90
46366;DHT22;32073;49.166;8.076;2022-09-09T04:21:51;19.50;62.00
46366;DHT22;32073;49.166;8.076;2022-09-09T04:25:54;19.50;62.00
46366;DHT22;32073;49.166;8.076;2022-09-09T04:29:55;19.50;62.20
46366;DHT22;32073;49.166;8.076;2022-09-09T04:33:57;19.60;62.10
46366;DHT22;32073;49.166;8.076;2022-09-09T04:37:58;19.60;62.10
46366;DHT22;32073;49.166;8.076;2022-09-09T04:41:59;19.50;62.10
46366;DHT22;32073;49.166;8.076;2022-09-09T04:46:02;19.50;61.90
46366;DHT22;32073;49.166;8.076;2022-09-09T04:50:03;19.50;62.00
46366;DHT22;32073;49.166;8.076;2022-09-09T04:54:03;19.40;62.00
46366;DHT22;32073;49.166;8.076;2022-09-09T04:58:07;19.40;62.10
46366;DHT22;32073;49.166;8.076;2022-09-09T05:02:08;19.40;62.30
46366;DHT22;32073;49.166;8.076;2022-09-09T05:06:15;19.30;62.30
46366;DHT22;32073;49.166;8.076;2022-09-09T05:10:17;19.30;62.50
46366;DHT22;32073;49.166;8.076;2022-09-09T05:14:18;19.30;62.30
46366;DHT22;32073;49.166;8.076;2022-09-09T05:18:19;19.30;62.40
46366;DHT22;32073;49.166;8.076;2022-09-09T05:22:20;19.20;62.30
46366;DHT22;32073;49.166;8.076;2022-09-09T05:26:22;19.20;62.50
46366;DHT22;32073;49.166;8.076;2022-09-09T05:30:23;19.30;62.70
46366;DHT22;32073;49.166;8.076;2022-09-09T05:34:25;19.20;62.70
46366;DHT22;32073;49.166;8.076;2022-09-09T05:38:26;19.20;62.80
46366;DHT22;32073;49.166;8.076;2022-09-09T05:42:30;19.20;62.80
46366;DHT22;32073;49.166;8.076;2022-09-09T05:46:32;19.20;63.00
46366;DHT22;32073;49.166;8.076;2022-09-09T05:50:35;19.30;63.10
46366;DHT22;32073;49.166;8.076;2022-09-09T05:54:36;19.20;63.30
46366;DHT22;32073;49.166;8.076;2022-09-09T05:58:38;19.30;63.60
46366;DHT22;32073;49.166;8.076;2022-09-09T06:02:39;19.40;63.60
46366;DHT22;32073;49.166;8.076;2022-09-09T06:06:41;19.40;63.50
46366;DHT22;32073;49.166;8.076;2022-09-09T06:10:42;19.50;63.50
46366;DHT22;32073;49.166;8.076;2022-09-09T06:14:43;19.50;63.90
46366;DHT22;32073;49.166;8.076;2022-09-09T06:18:44;19.60;63.30
46366;DHT22;32073;49.166;8.076;2022-09-09T06:22:45;19.60;63.30
46366;DHT22;32073;49.166;8.076;2022-09-09T06:26:47;19.70;63.30
46366;DHT22;32073;49.166;8.076;2022-09-09T06:30:47;19.70;63.30
46366;DHT22;32073;49.166;8.076;2022-09-09T06:34:48;19.70;63.20
46366;DHT22;32073;49.166;8.076;2022-09-09T06:38:50;19.70;63.30
46366;DHT22;32073;49.166;8.076;2022-09-09T06:42:50;19.80;63.70
46366;DHT22;32073;49.166;8.076;2022-09-09T06:46:51;19.80;63.60
46366;DHT22;32073;49.166;8.076;2022-09-09T06:55:11;19.90;63.80
46366;DHT22;32073;49.166;8.076;2022-09-09T06:59:13;20.00;63.40
46366;DHT22;32073;49.166;8.076;2022-09-09T07:03:14;20.10;63.60
46366;DHT22;32073;49.166;8.076;2022-09-09T07:07:14;20.10;63.80
46366;DHT22;32073;49.166;8.076;2022-09-09T07:11:16;20.20;63.80
46366;DHT22;32073;49.166;8.076;2022-09-09T07:15:16;20.20;63.80
46366;DHT22;32073;49.166;8.076;2022-09-09T07:19:18;20.40;64.00
46366;DHT22;32073;49.166;8.076;2022-09-09T07:23:19;20.50;64.30
46366;DHT22;32073;49.166;8.076;2022-09-09T07:27:20;20.50;63.30
46366;DHT22;32073;49.166;8.076;2022-09-09T07:31:24;20.70;63.30
46366;DHT22;32073;49.166;8.076;2022-09-09T07:35:27;20.70;63.30
46366;DHT22;32073;49.166;8.076;2022-09-09T07:39:27;20.90;63.50
46366;DHT22;32073;49.166;8.076;2022-09-09T07:43:28;21.00;63.60
46366;DHT22;32073;49.166;8.076;2022-09-09T07:47:29;21.20;63.70
46366;DHT22;32073;49.166;8.076;2022-09-09T07:51:32;21.20;63.80
46366;DHT22;32073;49.166;8.076;2022-09-09T07:55:37;21.40;63.50
46366;DHT22;32073;49.166;8.076;2022-09-09T07:59:38;21.60;63.20
46366;DHT22;32073;49.166;8.076;2022-09-09T08:03:39;21.60;62.70
46366;DHT22;32073;49.166;8.076;2022-09-09T08:07:40;21.80;62.60
46366;DHT22;32073;49.166;8.076;2022-09-09T08:11:41;21.80;62.50
46366;DHT22;32073;49.166;8.076;2022-09-09T08:15:42;21.80;62.40
46366;DHT22;32073;49.166;8.076;2022-09-09T08:19:45;21.80;62.70
46366;DHT22;32073;49.166;8.076;2022-09-09T08:23:47;22.00;62.80
46366;DHT22;32073;49.166;8.076;2022-09-09T08:27:48;22.00;62.80
46366;DHT22;32073;49.166;8.076;2022-09-09T08:31:54;22.10;62.80
46366;DHT22;32073;49.166;8.076;2022-09-09T08:35:57;22.20;62.60
46366;DHT22;32073;49.166;8.076;2022-09-09T08:39:58;22.40;62.60
46366;DHT22;32073;49.166;8.076;2022-09-09T08:44:05;22.50;62.30
46366;DHT22;32073;49.166;8.076;2022-09-09T08:48:39;22.60;62.00
46366;DHT22;32073;49.166;8.076;2022-09-09T08:53:11;22.70;61.70
46366;DHT22;32073;49.166;8.076;2022-09-09T08:57:27;22.70;61.80
46366;DHT22;32073;49.166;8.076;2022-09-09T09:01:50;22.80;61.60
46366;DHT22;32073;49.166;8.076;2022-09-09T09:06:08;23.10;61.80
46366;DHT22;32073;49.166;8.076;2022-09-09T09:10:34;23.10;62.00
46366;DHT22;32073;49.166;8.076;2022-09-09T09:14:46;23.20;62.40
46366;DHT22;32073;49.166;8.076;2022-09-09T09:18:48;23.20;61.50
46366;DHT22;32073;49.166;8.076;2022-09-09T09:22:50;23.00;61.30
46366;DHT22;32073;49.166;8.076;2022-09-09T09:26:54;23.00;61.70
46366;DHT22;32073;49.166;8.076;2022-09-09T09:30:56;23.00;62.20
46366;DHT22;32073;49.166;8.076;2022-09-09T09:35:02;23.00;62.50
46366;DHT22;32073;49.166;8.076;2022-09-09T09:39:10;23.20;62.40
46366;DHT22;32073;49.166;8.076;2022-09-09T09:43:24;23.30;62.10
46366;DHT22;32073;49.166;8.076;2022-09-09T09:47:29;23.40;61.70
46366;DHT22;32073;49.166;8.076;2022-09-09T09:51:31;23.50;62.00
46366;DHT22;32073;49.166;8.076;2022-09-09T09:55:34;23.50;61.10
46366;DHT22;32073;49.166;8.076;2022-09-09T09:59:36;23.80;60.80
46366;DHT22;32073;49.166;8.076;2022-09-09T10:03:50;23.90;60.40
46366;DHT22;32073;49.166;8.076;2022-09-09T10:12:24;23.80;59.60
46366;DHT22;32073;49.166;8.076;2022-09-09T10:26:03;23.90;59.30
46366;DHT22;32073;49.166;8.076;2022-09-09T10:30:19;23.90;58.50
46366;DHT22;32073;49.166;8.076;2022-09-09T10:38:59;23.80;58.50
46366;DHT22;32073;49.166;8.076;2022-09-09T10:43:32;23.70;58.40
46366;DHT22;32073;49.166;8.076;2022-09-09T10:48:12;23.70;57.80
46366;DHT22;32073;49.166;8.076;2022-09-09T10:52:40;23.90;57.60
46366;DHT22;32073;49.166;8.076;2022-09-09T10:57:05;23.90;57.30
46366;DHT22;32073;49.166;8.076;2022-09-09T11:01:18;24.10;57.60
46366;DHT22;32073;49.166;8.076;2022-09-09T11:05:38;24.40;57.20
46366;DHT22;32073;49.166;8.076;2022-09-09T11:09:49;24.50;56.50
46366;DHT22;32073;49.166;8.076;2022-09-09T11:14:01;24.70;55.90
46366;DHT22;32073;49.166;8.076;2022-09-09T11:18:10;24.90;55.80
46366;DHT22;32073;49.166;8.076;2022-09-09T11:26:40;25.10;55.00
46366;DHT22;32073;49.166;8.076;2022-09-09T11:31:43;25.20;55.40
46366;DHT22;32073;49.166;8.076;2022-09-09T11:40:36;25.00;56.30
46366;DHT22;32073;49.166;8.076;2022-09-09T11:44:37;24.90;56.40
46366;DHT22;32073;49.166;8.076;2022-09-09T11:48:40;24.90;56.40
46366;DHT22;32073;49.166;8.076;2022-09-09T11:52:46;24.90;55.80
46366;DHT22;32073;49.166;8.076;2022-09-09T11:56:48;24.80;55.80
46366;DHT22;32073;49.166;8.076;2022-09-09T12:00:49;24.90;55.80
46366;DHT22;32073;49.166;8.076;2022-09-09T12:13:36;25.10;55.50
46366;DHT22;32073;49.166;8.076;2022-09-09T12:17:49;25.10;55.50
46366;DHT22;32073;49.166;8.076;2022-09-09T12:22:20;25.10;55.30
46366;DHT22;32073;49.166;8.076;2022-09-09T12:31:10;25.10;55.60
46366;DHT22;32073;49.166;8.076;2022-09-09T12:35:21;25.10;54.90
46366;DHT22;32073;49.166;8.076;2022-09-09T12:39:34;24.90;54.80
46366;DHT22;32073;49.166;8.076;2022-09-09T12:43:38;24.50;53.90
46366;DHT22;32073;49.166;8.076;2022-09-09T12:47:45;24.30;54.10
46366;DHT22;32073;49.166;8.076;2022-09-09T12:51:47;24.00;54.50
46366;DHT22;32073;49.166;8.076;2022-09-09T12:56:07;23.90;55.00
46366;DHT22;32073;49.166;8.076;2022-09-09T13:00:15;23.70;55.50
46366;DHT22;32073;49.166;8.076;2022-09-09T13:04:22;23.70;56.20
46366;DHT22;32073;49.166;8.076;2022-09-09T13:08:22;23.80;56.60
46366;DHT22;32073;49.166;8.076;2022-09-09T13:12:24;23.90;56.90
46366;DHT22;32073;49.166;8.076;2022-09-09T13:16:28;24.00;57.00
46366;DHT22;32073;49.166;8.076;2022-09-09T13:20:33;24.20;56.80
46366;DHT22;32073;49.166;8.076;2022-09-09T13:24:34;24.30;57.00
46366;DHT22;32073;49.166;8.076;2022-09-09T13:28:44;24.40;56.80
46366;DHT22;32073;49.166;8.076;2022-09-09T13:32:46;24.40;55.80
46366;DHT22;32073;49.166;8.076;2022-09-09T13:36:47;24.70;55.40
46366;DHT22;32073;49.166;8.076;2022-09-09T13:41:00;24.70;55.50
46366;DHT22;32073;49.166;8.076;2022-09-09T13:45:05;24.70;55.50
46366;DHT22;32073;49.166;8.076;2022-09-09T13:53:09;24.80;54.30
46366;DHT22;32073;49.166;8.076;2022-09-09T13:57:16;24.80;54.20
46366;DHT22;32073;49.166;8.076;2022-09-09T14:01:18;24.90;53.80
46366;DHT22;32073;49.166;8.076;2022-09-09T14:05:19;25.00;54.30
46366;DHT22;32073;49.166;8.076;2022-09-09T14:09:20;25.00;54.20
46366;DHT22;32073;49.166;8.076;2022-09-09T14:13:21;24.90;53.80
46366;DHT22;32073;49.166;8.076;2022-09-09T14:17:22;25.00;53.50
46366;DHT22;32073;49.166;8.076;2022-09-09T14:21:23;24.90;53.30
46366;DHT22;32073;49.166;8.076;2022-09-09T14:25:24;24.90;53.90
46366;DHT22;32073;49.166;8.076;2022-09-09T14:29:25;24.80;53.80
46366;DHT22;32073;49.166;8.076;2022-09-09T14:33:27;24.70;53.70
46366;DHT22;32073;49.166;8.076;2022-09-09T14:37:29;24.60;53.80
46366;DHT22;32073;49.166;8.076;2022-09-09T14:41:31;24.60;53.70
46366;DHT22;32073;49.166;8.076;2022-09-09T14:45:32;24.60;53.60
46366;DHT22;32073;49.166;8.076;2022-09-09T14:49:34;24.60;53.60
46366;DHT22;32073;49.166;8.076;2022-09-09T14:53:35;24.50;53.40
46366;DHT22;32073;49.166;8.076;2022-09-09T14:57:36;24.40;52.60
46366;DHT22;32073;49.166;8.076;2022-09-09T15:01:37;24.50;52.60
46366;DHT22;32073;49.166;8.076;2022-09-09T15:05:38;24.50;52.50
46366;DHT22;32073;49.166;8.076;2022-09-09T15:09:38;24.60;53.10
46366;DHT22;32073;49.166;8.076;2022-09-09T15:13:40;24.70;52.20
46366;DHT22;32073;49.166;8.076;2022-09-09T15:17:42;24.80;51.70
46366;DHT22;32073;49.166;8.076;2022-09-09T15:21:43;24.80;51.70
46366;DHT22;32073;49.166;8.076;2022-09-09T15:25:54;24.90;51.50
46366;DHT22;32073;49.166;8.076;2022-09-09T15:29:56;24.90;51.00
46366;DHT22;32073;49.166;8.076;2022-09-09T15:34:00;24.80;51.00
46366;DHT22;32073;49.166;8.076;2022-09-09T15:38:03;24.70;50.60
46366;DHT22;32073;49.166;8.076;2022-09-09T15:42:05;24.60;50.90
46366;DHT22;32073;49.166;8.076;2022-09-09T15:46:35;24.60;51.00
46366;DHT22;32073;49.166;8.076;2022-09-09T15:50:37;24.50;50.50
46366;DHT22;32073;49.166;8.076;2022-09-09T15:54:38;24.50;50.50
46366;DHT22;32073;49.166;8.076;2022-09-09T15:58:39;24.30;50.60
46366;DHT22;32073;49.166;8.076;2022-09-09T16:02:40;24.30;50.70
46366;DHT22;32073;49.166;8.076;2022-09-09T16:06:40;24.20;50.80
46366;DHT22;32073;49.166;8.076;2022-09-09T16:10:41;24.10;50.90
46366;DHT22;32073;49.166;8.076;2022-09-09T16:14:42;24.00;51.10
46366;DHT22;32073;49.166;8.076;2022-09-09T16:18:45;24.00;51.20
46366;DHT22;32073;49.166;8.076;2022-09-09T16:22:47;23.90;51.70
46366;DHT22;32073;49.166;8.076;2022-09-09T16:26:53;23.90;51.80
46366;DHT22;32073;49.166;8.076;2022-09-09T16:30:54;23.80;52.20
46366;DHT22;32073;49.166;8.076;2022-09-09T16:34:55;23.80;52.20
46366;DHT22;32073;49.166;8.076;2022-09-09T16:38:58;23.80;52.70
46366;DHT22;32073;49.166;8.076;2022-09-09T16:43:00;23.80;52.80
46366;DHT22;32073;49.166;8.076;2022-09-09T16:47:01;23.90;52.50
46366;DHT22;32073;49.166;8.076;2022-09-09T16:51:11;23.80;52.60
46366;DHT22;32073;49.166;8.076;2022-09-09T16:55:14;23.80;52.50
46366;DHT22;32073;49.166;8.076;2022-09-09T16:59:17;23.80;52.40
46366;DHT22;32073;49.166;8.076;2022-09-09T17:03:19;23.70;52.50
46366;DHT22;32073;49.166;8.076;2022-09-09T17:07:21;23.70;52.50
46366;DHT22;32073;49.166;8.076;2022-09-09T17:11:22;23.50;52.50
46366;DHT22;32073;49.166;8.076;2022-09-09T17:15:23;23.50;52.70
46366;DHT22;32073;49.166;8.076;2022-09-09T17:19:25;23.40;52.80
46366;DHT22;32073;49.166;8.076;2022-09-09T17:23:26;23.30;52.90
46366;DHT22;32073;49.166;8.076;2022-09-09T17:27:27;23.20;53.10
46366;DHT22;32073;49.166;8.076;2022-09-09T17:31:30;23.10;53.20
46366;DHT22;32073;49.166;8.076;2022-09-09T17:35:33;23.00;53.40
46366;DHT22;32073;49.166;8.076;2022-09-09T17:39:34;22.90;53.50
46366;DHT22;32073;49.166;8.076;2022-09-09T17:43:35;22.80;53.70
46366;DHT22;32073;49.166;8.076;2022-09-09T17:47:39;22.80;54.00
46366;DHT22;32073;49.166;8.076;2022-09-09T17:51:43;22.70;54.10
46366;DHT22;32073;49.166;8.076;2022-09-09T17:55:45;22.60;54.30
46366;DHT22;32073;49.166;8.076;2022-09-09T17:59:46;22.50;54.50
46366;DHT22;32073;49.166;8.076;2022-09-09T18:03:47;22.50;54.70
46366;DHT22;32073;49.166;8.076;2022-09-09T18:07:49;22.40;55.40
46366;DHT22;32073;49.166;8.076;2022-09-09T18:11:52;22.30;55.00
46366;DHT22;32073;49.166;8.076;2022-09-09T18:15:56;22.30;55.10
46366;DHT22;32073;49.166;8.076;2022-09-09T18:19:57;22.30;55.60
46366;DHT22;32073;49.166;8.076;2022-09-09T18:23:59;22.30;55.60
46366;DHT22;32073;49.166;8.076;2022-09-09T18:28:01;22.20;56.20
46366;DHT22;32073;49.166;8.076;2022-09-09T18:32:02;22.20;56.10
46366;DHT22;32073;49.166;8.076;2022-09-09T18:36:11;22.20;56.10
46366;DHT22;32073;49.166;8.076;2022-09-09T18:40:19;22.20;56.50
46366;DHT22;32073;49.166;8.076;2022-09-09T18:44:23;22.20;56.40
46366;DHT22;32073;49.166;8.076;2022-09-09T18:48:26;22.10;56.70
46366;DHT22;32073;49.166;8.076;2022-09-09T18:52:26;22.10;56.30
46366;DHT22;32073;49.166;8.076;2022-09-09T18:56:28;22.00;55.70
46366;DHT22;32073;49.166;8.076;2022-09-09T19:00:29;21.90;55.70
46366;DHT22;32073;49.166;8.076;2022-09-09T19:04:31;21.80;55.30
46366;DHT22;32073;49.166;8.076;2022-09-09T19:08:36;21.70;55.50
46366;DHT22;32073;49.166;8.076;2022-09-09T19:12:38;21.60;55.90
46366;DHT22;32073;49.166;8.076;2022-09-09T19:16:40;21.40;56.10
46366;DHT22;32073;49.166;8.076;2022-09-09T19:20:42;21.50;56.40
46366;DHT22;32073;49.166;8.076;2022-09-09T19:24:42;21.50;56.60
46366;DHT22;32073;49.166;8.076;2022-09-09T19:28:44;21.40;56.50
46366;DHT22;32073;49.166;8.076;2022-09-09T19:32:46;21.30;56.60
46366;DHT22;32073;49.166;8.076;2022-09-09T19:36:47;21.30;56.90
46366;DHT22;32073;49.166;8.076;2022-09-09T19:40:47;21.30;56.90
46366;DHT22;32073;49.166;8.076;2022-09-09T19:44:49;21.20;57.10
46366;DHT22;32073;49.166;8.076;2022-09-09T19:48:50;21.20;57.00
46366;DHT22;32073;49.166;8.076;2022-09-09T19:52:51;21.10;57.20
46366;DHT22;32073;49.166;8.076;2022-09-09T19:56:52;21.10;57.30
46366;DHT22;32073;49.166;8.076;2022-09-09T20:00:53;21.00;57.10
46366;DHT22;32073;49.166;8.076;2022-09-09T20:04:53;21.00;57.40
46366;DHT22;32073;49.166;8.076;2022-09-09T20:08:55;20.90;57.60
46366;DHT22;32073;49.166;8.076;2022-09-09T20:12:56;20.80;57.60
46366;DHT22;32073;49.166;8.076;2022-09-09T20:16:57;20.80;57.80
46366;DHT22;32073;49.166;8.076;2022-09-09T20:20:59;20.70;57.90
46366;DHT22;32073;49.166;8.076;2022-09-09T20:25:00;20.70;58.20
46366;DHT22;32073;49.166;8.076;2022-09-09T20:29:07;20.60;58.40
46366;DHT22;32073;49.166;8.076;2022-09-09T20:33:10;20.70;59.00
46366;DHT22;32073;49.166;8.076;2022-09-09T20:37:11;20.70;58.80
46366;DHT22;32073;49.166;8.076;2022-09-09T20:41:14;20.70;58.70
46366;DHT22;32073;49.166;8.076;2022-09-09T20:45:18;20.60;58.80
46366;DHT22;32073;49.166;8.076;2022-09-09T20:49:20;20.70;59.10
46366;DHT22;32073;49.166;8.076;2022-09-09T20:53:21;20.70;59.10
46366;DHT22;32073;49.166;8.076;2022-09-09T20:57:22;20.60;59.60
46366;DHT22;32073;49.166;8.076;2022-09-09T21:01:23;20.60;58.90
46366;DHT22;32073;49.166;8.076;2022-09-09T21:05:25;20.60;59.00
46366;DHT22;32073;49.166;8.076;2022-09-09T21:09:25;20.50;59.00
46366;DHT22;32073;49.166;8.076;2022-09-09T21:13:26;20.50;59.00
46366;DHT22;32073;49.166;8.076;2022-09-09T21:17:27;20.50;59.10
46366;DHT22;32073;49.166;8.076;2022-09-09T21:21:28;20.40;59.20
46366;DHT22;32073;49.166;8.076;2022-09-09T21:25:29;20.40;59.30
46366;DHT22;32073;49.166;8.076;2022-09-09T21:29:30;20.40;59.50
46366;DHT22;32073;49.166;8.076;2022-09-09T21:33:32;20.40;59.50
46366;DHT22;32073;49.166;8.076;2022-09-09T21:37:33;20.40;59.70
46366;DHT22;32073;49.166;8.076;2022-09-09T21:41:34;20.40;59.60
46366;DHT22;32073;49.166;8.076;2022-09-09T21:45:37;20.40;59.50
46366;DHT22;32073;49.166;8.076;2022-09-09T21:49:39;20.30;59.40
46366;DHT22;32073;49.166;8.076;2022-09-09T21:53:39;20.20;59.50
46366;DHT22;32073;49.166;8.076;2022-09-09T21:57:40;20.10;59.40
46366;DHT22;32073;49.166;8.076;2022-09-09T22:01:40;20.10;59.50
46366;DHT22;32073;49.166;8.076;2022-09-09T22:05:43;20.00;59.50
46366;DHT22;32073;49.166;8.076;2022-09-09T22:09:45;20.00;59.70
46366;DHT22;32073;49.166;8.076;2022-09-09T22:13:46;19.90;59.80
46366;DHT22;32073;49.166;8.076;2022-09-09T22:17:47;20.00;59.80
46366;DHT22;32073;49.166;8.076;2022-09-09T22:21:48;19.80;59.80
46366;DHT22;32073;49.166;8.076;2022-09-09T22:25:49;19.80;60.00
46366;DHT22;32073;49.166;8.076;2022-09-09T22:29:49;19.80;60.00
46366;DHT22;32073;49.166;8.076;2022-09-09T22:33:50;19.70;60.00
46366;DHT22;32073;49.166;8.076;2022-09-09T22:37:51;19.70;60.00
46366;DHT22;32073;49.166;8.076;2022-09-09T22:41:52;19.60;60.10
46366;DHT22;32073;49.166;8.076;2022-09-09T22:45:52;19.60;60.10
46366;DHT22;32073;49.166;8.076;2022-09-09T22:49:53;19.50;60.10
46366;DHT22;32073;49.166;8.076;2022-09-09T22:53:54;19.50;60.20
46366;DHT22;32073;49.166;8.076;2022-09-09T22:57:58;19.40;60.20
46366;DHT22;32073;49.166;8.076;2022-09-09T23:01:59;19.40;60.20
46366;DHT22;32073;49.166;8.076;2022-09-09T23:06:00;19.40;60.30
46366;DHT22;32073;49.166;8.076;2022-09-09T23:10:04;19.30;60.30
46366;DHT22;32073;49.166;8.076;2022-09-09T23:14:09;19.30;60.50
46366;DHT22;32073;49.166;8.076;2022-09-09T23:18:10;19.30;60.60
46366;DHT22;32073;49.166;8.076;2022-09-09T23:22:13;19.30;60.70
46366;DHT22;32073;49.166;8.076;2022-09-09T23:26:15;19.30;60.90
46366;DHT22;32073;49.166;8.076;2022-09-09T23:30:18;19.40;60.90
46366;DHT22;32073;49.166;8.076;2022-09-09T23:34:19;19.40;61.00
46366;DHT22;32073;49.166;8.076;2022-09-09T23:38:20;19.40;60.90
46366;DHT22;32073;49.166;8.076;2022-09-09T23:42:20;19.40;60.90
46366;DHT22;32073;49.166;8.076;2022-09-09T23:46:24;19.40;60.90
46366;DHT22;32073;49.166;8.076;2022-09-09T23:50:26;19.40;61.10
46366;DHT22;32073;49.166;8.076;2022-09-09T23:54:27;19.40;61.00
46366;DHT22;32073;49.166;8.076;2022-09-09T23:58:30;19.40;61.00
